Time;durP1;ratioP1;P1;durP2;ratioP2;P2;SDS_P1;SDS_P2;PMS_P1;PMS_P2;Temp;Humidity;BMP_temperature;BMP_pressure;BME280_temperature;BME280_humidity;BME280_pressure;Samples;Min_cycle;Max_cycle;Signal;HPM_P1;HPM_P2
2021/10/14 00:01:05;;;;;;;1.73;0.88;;;20.30;54.40;;;;;;4985569;28;20042;-55
2021/10/14 00:03:31;;;;;;;1.35;0.80;;;20.20;54.30;;;;;;4994320;28;20058;-60
2021/10/14 00:05:56;;;;;;;1.90;1.00;;;20.20;54.30;;;;;;4989572;28;20498;-59
2021/10/14 00:08:22;;;;;;;1.33;0.70;;;20.20;54.30;;;;;;4989993;28;20403;-59
2021/10/14 00:10:48;;;;;;;1.02;0.70;;;20.20;54.30;;;;;;4986120;28;20346;-56
2021/10/14 00:13:13;;;;;;;1.10;0.68;;;20.20;54.40;;;;;;4987887;28;20328;-58
2021/10/14 00:15:40;;;;;;;1.25;0.70;;;20.20;54.40;;;;;;4993375;28;20030;-57
2021/10/14 00:18:05;;;;;;;1.38;0.77;;;20.20;54.40;;;;;;4986878;28;20034;-60
2021/10/14 00:20:31;;;;;;;1.25;0.70;;;20.10;54.40;;;;;;4983959;28;20200;-58
2021/10/14 00:22:57;;;;;;;1.25;0.60;;;20.10;54.40;;;;;;4985890;28;20602;-58
2021/10/14 00:25:23;;;;;;;1.15;0.70;;;20.10;54.40;;;;;;4992615;28;20566;-58
2021/10/14 00:27:49;;;;;;;1.33;0.80;;;20.10;54.90;;;;;;4994037;28;20558;-58
2021/10/14 00:30:15;;;;;;;1.23;0.73;;;20.10;54.40;;;;;;4986181;28;20030;-60
2021/10/14 00:32:41;;;;;;;1.20;0.60;;;20.10;54.50;;;;;;4984729;28;20038;-58
2021/10/14 00:35:07;;;;;;;2.05;0.70;;;20.10;54.50;;;;;;4990033;28;20049;-59
2021/10/14 00:37:32;;;;;;;1.00;0.70;;;20.10;54.50;;;;;;4988416;28;20598;-60
2021/10/14 00:39:58;;;;;;;1.30;0.75;;;20.10;54.50;;;;;;4988466;28;20069;-59
2021/10/14 00:42:24;;;;;;;1.63;0.80;;;20.10;54.50;;;;;;4988374;28;20026;-60
2021/10/14 00:44:52;;;;;;;1.23;0.70;;;20.10;54.50;;;;;;4988155;28;20034;-58
2021/10/14 00:47:26;;;;;;;1.73;0.70;;;20.10;54.50;;;;;;4993527;28;20042;-60
2021/10/14 00:49:52;;;;;;;1.23;0.70;;;20.10;54.50;;;;;;4979315;28;20050;-57
2021/10/14 00:52:18;;;;;;;1.40;0.73;;;20.10;54.60;;;;;;4985748;28;20462;-58
2021/10/14 00:54:45;;;;;;;1.45;0.77;;;20.00;54.60;;;;;;4983243;28;20058;-59
2021/10/14 00:57:12;;;;;;;0.93;0.70;;;20.00;54.50;;;;;;4983766;28;20675;-57
2021/10/14 00:59:38;;;;;;;1.13;0.70;;;20.00;54.50;;;;;;4988491;28;20085;-54
2021/10/14 01:02:05;;;;;;;0.95;0.63;;;20.00;54.60;;;;;;4985868;28;20057;-58
2021/10/14 01:04:30;;;;;;;1.27;0.70;;;20.00;55.10;;;;;;5001385;28;20473;-58
2021/10/14 01:06:56;;;;;;;1.33;0.80;;;20.00;54.60;;;;;;4983208;28;20077;-55
2021/10/14 01:09:22;;;;;;;1.00;0.60;;;20.00;54.60;;;;;;4990443;28;20049;-55
2021/10/14 01:11:47;;;;;;;0.80;0.70;;;20.00;54.60;;;;;;4993321;28;20068;-60
2021/10/14 01:14:13;;;;;;;0.63;0.60;;;20.00;54.60;;;;;;4992357;28;20018;-58
2021/10/14 01:16:44;;;;;;;0.65;0.60;;;19.90;54.50;;;;;;4991992;28;20502;-58
2021/10/14 01:19:11;;;;;;;0.98;0.60;;;19.90;54.60;;;;;;4996440;28;20034;-58
2021/10/14 01:21:38;;;;;;;0.82;0.70;;;19.90;54.50;;;;;;4988149;28;20349;-56
2021/10/14 01:24:04;;;;;;;1.10;0.70;;;19.90;54.60;;;;;;4987932;28;20041;-57
2021/10/14 01:26:30;;;;;;;0.98;0.60;;;19.90;54.60;;;;;;5000402;28;20528;-60
2021/10/14 01:28:56;;;;;;;1.58;0.80;;;19.90;54.60;;;;;;4986180;28;20038;-54
2021/10/14 01:31:23;;;;;;;2.30;0.98;;;19.90;54.60;;;;;;4982441;28;20046;-58
2021/10/14 01:33:49;;;;;;;1.65;0.80;;;19.90;54.60;;;;;;5003922;28;20045;-56
2021/10/14 01:36:15;;;;;;;1.58;0.65;;;19.90;54.60;;;;;;4984600;28;20042;-56
2021/10/14 01:38:40;;;;;;;0.80;0.70;;;19.90;54.60;;;;;;4997735;28;20462;-57
2021/10/14 01:41:06;;;;;;;1.20;0.80;;;19.90;54.60;;;;;;4979595;28;20057;-58
2021/10/14 01:43:33;;;;;;;1.60;0.80;;;19.80;54.60;;;;;;4995822;28;20557;-58
2021/10/14 01:46:00;;;;;;;0.90;0.70;;;19.80;55.10;;;;;;4993853;28;20049;-59
2021/10/14 01:48:27;;;;;;;1.00;0.75;;;19.80;54.60;;;;;;4991440;28;20499;-60
2021/10/14 01:50:54;;;;;;;0.60;0.60;;;19.80;55.20;;;;;;5001249;28;20022;-58
2021/10/14 01:53:19;;;;;;;1.08;0.80;;;19.80;54.60;;;;;;4984723;28;20038;-56
2021/10/14 01:55:45;;;;;;;0.88;0.70;;;19.80;54.70;;;;;;4993155;28;20027;-56
2021/10/14 01:58:11;;;;;;;0.85;0.70;;;19.80;54.70;;;;;;5001480;28;20030;-58
2021/10/14 02:00:37;;;;;;;1.05;0.68;;;19.80;54.70;;;;;;4985827;28;20470;-57
2021/10/14 02:03:03;;;;;;;1.58;1.05;;;19.80;54.70;;;;;;4998946;28;20033;-58
2021/10/14 02:05:29;;;;;;;1.42;0.73;;;19.80;55.20;;;;;;4996250;28;20081;-57
2021/10/14 02:07:54;;;;;;;1.90;0.70;;;19.70;54.60;;;;;;4995098;28;20042;-58
2021/10/14 02:10:20;;;;;;;1.20;0.80;;;19.70;54.70;;;;;;4993219;28;20034;-59
2021/10/14 02:12:47;;;;;;;0.98;0.75;;;19.70;54.70;;;;;;4989412;28;20454;-60
2021/10/14 02:15:13;;;;;;;1.38;0.70;;;19.70;54.70;;;;;;4980524;28;20038;-59
2021/10/14 02:17:38;;;;;;;0.60;0.60;;;19.70;54.70;;;;;;4985400;28;20050;-56
2021/10/14 02:20:05;;;;;;;0.73;0.70;;;19.70;54.70;;;;;;4988093;28;20042;-56
2021/10/14 02:22:31;;;;;;;1.00;0.70;;;19.70;54.70;;;;;;4979524;28;20026;-58
2021/10/14 02:24:57;;;;;;;0.90;0.60;;;19.70;54.70;;;;;;4986998;28;20026;-59
2021/10/14 02:27:22;;;;;;;0.68;0.60;;;19.70;54.70;;;;;;4984803;28;20022;-57
2021/10/14 02:29:48;;;;;;;1.42;0.70;;;19.70;54.80;;;;;;5001543;28;20464;-58
2021/10/14 02:32:13;;;;;;;1.20;0.70;;;19.70;55.30;;;;;;4993112;28;20039;-58
2021/10/14 02:34:39;;;;;;;0.75;0.73;;;19.70;54.80;;;;;;4994086;28;20062;-55
2021/10/14 02:37:05;;;;;;;0.70;0.60;;;19.70;54.80;;;;;;4996178;28;20434;-56
2021/10/14 02:39:30;;;;;;;0.90;0.70;;;19.70;54.80;;;;;;4986848;28;20036;-56
2021/10/14 02:41:56;;;;;;;0.95;0.68;;;19.70;54.80;;;;;;4992457;28;20104;-58
2021/10/14 02:44:21;;;;;;;1.00;0.80;;;19.70;54.80;;;;;;4996737;28;20526;-59
2021/10/14 02:46:47;;;;;;;0.82;0.70;;;19.70;54.80;;;;;;4990150;28;20094;-59
2021/10/14 02:49:13;;;;;;;0.95;0.70;;;19.70;54.80;;;;;;4980260;28;20030;-60
2021/10/14 02:51:38;;;;;;;1.05;0.80;;;19.60;54.70;;;;;;4988679;28;20036;-58
2021/10/14 02:54:04;;;;;;;1.33;0.77;;;19.60;54.80;;;;;;4990006;28;20026;-60
2021/10/14 02:56:29;;;;;;;1.08;0.80;;;19.60;54.80;;;;;;4981084;28;20045;-59
2021/10/14 02:58:55;;;;;;;0.57;0.55;;;19.60;54.80;;;;;;4990198;28;20076;-58
2021/10/14 03:01:21;;;;;;;0.90;0.70;;;19.60;54.80;;;;;;4984980;28;20065;-56
2021/10/14 03:03:46;;;;;;;0.80;0.70;;;19.60;54.80;;;;;;4985105;28;20031;-60
2021/10/14 03:06:12;;;;;;;0.82;0.70;;;19.60;54.80;;;;;;4991963;28;20474;-56
2021/10/14 03:08:37;;;;;;;1.27;0.70;;;19.60;54.80;;;;;;4997073;28;20034;-52
2021/10/14 03:11:03;;;;;;;0.80;0.68;;;19.60;54.80;;;;;;5003825;28;20406;-57
2021/10/14 03:13:29;;;;;;;0.75;0.60;;;19.60;54.80;;;;;;4988377;28;20073;-57
2021/10/14 03:15:54;;;;;;;0.85;0.68;;;19.60;54.80;;;;;;5005402;28;20103;-59
2021/10/14 03:18:20;;;;;;;0.70;0.60;;;19.60;54.90;;;;;;4981296;28;20426;-58
2021/10/14 03:20:45;;;;;;;0.73;0.70;;;19.60;55.40;;;;;;4983416;28;20029;-59
2021/10/14 03:23:11;;;;;;;1.10;0.70;;;19.50;54.80;;;;;;4985974;28;20042;-58
2021/10/14 03:25:37;;;;;;;1.13;0.70;;;19.60;54.90;;;;;;4982596;28;20030;-59
2021/10/14 03:28:03;;;;;;;0.90;0.70;;;19.50;54.80;;;;;;4985689;28;20081;-53
2021/10/14 03:30:28;;;;;;;1.27;0.80;;;19.50;54.90;;;;;;4991408;28;20064;-58
2021/10/14 03:32:54;;;;;;;0.95;0.70;;;19.50;54.90;;;;;;4981193;28;20038;-59
2021/10/14 03:35:20;;;;;;;0.60;0.60;;;19.50;54.90;;;;;;4989286;28;20046;-57
2021/10/14 03:37:46;;;;;;;0.88;0.70;;;19.50;54.90;;;;;;4980404;28;20408;-57
2021/10/14 03:40:13;;;;;;;1.15;0.80;;;19.50;54.80;;;;;;4984182;28;20081;-57
2021/10/14 03:42:39;;;;;;;1.50;0.73;;;19.50;54.90;;;;;;4991731;28;21930;-55
2021/10/14 03:45:05;;;;;;;2.30;0.73;;;19.50;54.90;;;;;;4988176;28;20100;-58
2021/10/14 03:47:31;;;;;;;1.15;0.70;;;19.50;54.80;;;;;;4984607;28;20033;-58
2021/10/14 03:49:56;;;;;;;1.00;0.90;;;19.50;54.90;;;;;;4995279;28;20034;-51
2021/10/14 03:52:22;;;;;;;1.10;0.75;;;19.50;54.90;;;;;;4989831;28;20046;-55
2021/10/14 03:54:47;;;;;;;0.85;0.60;;;19.50;54.90;;;;;;4990468;28;20447;-56
2021/10/14 03:57:13;;;;;;;0.73;0.70;;;19.50;54.90;;;;;;4989213;28;20019;-59
2021/10/14 03:59:38;;;;;;;1.60;0.70;;;19.50;54.90;;;;;;4990823;28;20023;-58
2021/10/14 04:02:04;;;;;;;1.50;0.70;;;19.50;54.90;;;;;;4988316;28;20204;-53
2021/10/14 04:04:30;;;;;;;0.70;0.70;;;19.40;55.40;;;;;;4986727;28;20653;-57
2021/10/14 04:06:55;;;;;;;0.52;0.52;;;19.50;55.00;;;;;;4983881;28;20482;-52
2021/10/14 04:09:21;;;;;;;0.80;0.57;;;19.50;55.00;;;;;;4989460;28;20080;-55
2021/10/14 04:11:46;;;;;;;0.77;0.60;;;19.40;54.90;;;;;;4988912;28;20097;-56
2021/10/14 04:14:12;;;;;;;2.00;0.70;;;19.40;54.90;;;;;;4989696;28;20026;-59
2021/10/14 04:16:37;;;;;;;0.85;0.63;;;19.50;55.00;;;;;;4991978;28;20091;-57
2021/10/14 04:19:03;;;;;;;0.93;0.70;;;19.50;54.90;;;;;;4997046;28;20064;-51
2021/10/14 04:21:30;;;;;;;1.15;0.65;;;19.50;55.00;;;;;;4981614;28;20050;-57
2021/10/14 04:23:56;;;;;;;0.80;0.60;;;19.40;55.00;;;;;;4981602;28;20069;-51
2021/10/14 04:26:22;;;;;;;1.20;0.77;;;19.40;55.00;;;;;;4981733;28;20136;-54
2021/10/14 04:28:48;;;;;;;0.73;0.63;;;19.40;55.10;;;;;;4990325;28;20106;-54
2021/10/14 04:31:14;;;;;;;0.93;0.80;;;19.40;55.10;;;;;;4981373;28;20046;-57
2021/10/14 04:33:40;;;;;;;1.15;0.80;;;19.40;55.20;;;;;;4997084;28;20084;-56
2021/10/14 04:36:06;;;;;;;1.20;0.77;;;19.40;55.20;;;;;;4993919;28;20030;-58
2021/10/14 04:38:32;;;;;;;1.58;0.70;;;19.40;55.30;;;;;;4985625;28;20078;-58
2021/10/14 04:40:58;;;;;;;0.93;0.65;;;19.50;55.30;;;;;;4984770;28;20042;-59
2021/10/14 04:43:23;;;;;;;1.15;0.73;;;19.40;55.40;;;;;;4981306;28;20737;-57
2021/10/14 04:45:53;;;;;;;1.88;0.90;;;19.40;55.40;;;;;;4976274;28;20374;-53
2021/10/14 04:48:19;;;;;;;0.80;0.70;;;19.40;55.40;;;;;;5003349;28;20042;-57
2021/10/14 04:50:45;;;;;;;1.13;0.80;;;19.40;55.50;;;;;;4993984;28;20041;-55
2021/10/14 04:53:10;;;;;;;0.98;0.65;;;19.40;55.50;;;;;;4994366;28;20073;-55
2021/10/14 04:55:36;;;;;;;1.40;0.70;;;19.40;55.50;;;;;;4983240;28;20031;-52
2021/10/14 04:58:01;;;;;;;0.90;0.73;;;19.40;55.60;;;;;;4985200;28;20358;-56
2021/10/14 05:00:27;;;;;;;1.27;0.70;;;19.40;55.60;;;;;;4992223;28;20190;-54
2021/10/14 05:02:53;;;;;;;0.80;0.65;;;19.40;55.60;;;;;;4989054;28;20038;-56
2021/10/14 05:05:19;;;;;;;1.25;0.70;;;19.40;56.10;;;;;;4982661;28;20120;-55
2021/10/14 05:07:44;;;;;;;1.58;0.90;;;19.40;55.60;;;;;;4987948;28;20566;-54
2021/10/14 05:10:10;;;;;;;0.50;0.50;;;19.40;55.60;;;;;;4991474;28;20434;-56
2021/10/14 05:12:36;;;;;;;1.98;0.75;;;19.40;55.70;;;;;;4990490;28;20049;-55
2021/10/14 05:15:09;;;;;;;1.73;0.80;;;19.40;55.70;;;;;;4983391;28;20455;-57
2021/10/14 05:17:36;;;;;;;1.73;0.65;;;19.30;55.70;;;;;;4984235;28;20430;-58
2021/10/14 05:20:04;;;;;;;1.75;0.80;;;19.30;55.70;;;;;;4984831;28;20188;-56
2021/10/14 05:22:30;;;;;;;1.35;0.77;;;19.40;55.80;;;;;;4976908;28;20080;-59
2021/10/14 05:24:55;;;;;;;1.33;0.75;;;19.30;55.70;;;;;;4990434;28;20042;-53
2021/10/14 05:27:21;;;;;;;2.15;0.77;;;19.30;55.70;;;;;;4988263;28;20042;-59
2021/10/14 05:29:47;;;;;;;1.40;0.82;;;19.30;55.70;;;;;;4989452;28;20030;-55
2021/10/14 05:32:12;;;;;;;0.98;0.70;;;19.30;55.60;;;;;;4983906;28;20348;-57
2021/10/14 05:34:38;;;;;;;2.83;0.70;;;19.40;55.70;;;;;;4985323;28;20407;-56
2021/10/14 05:37:04;;;;;;;1.40;0.90;;;19.40;55.70;;;;;;4984925;28;20023;-53
2021/10/14 05:39:29;;;;;;;1.40;0.70;;;19.30;55.60;;;;;;4986402;28;20056;-58
2021/10/14 05:41:55;;;;;;;3.38;0.88;;;19.30;55.60;;;;;;4978422;28;20033;-57
2021/10/14 05:44:20;;;;;;;2.17;0.82;;;19.40;55.70;;;;;;4974652;28;20031;-57
2021/10/14 05:46:46;;;;;;;1.13;0.70;;;19.30;55.60;;;;;;4981343;28;20054;-57
2021/10/14 05:49:12;;;;;;;0.80;0.65;;;19.30;55.60;;;;;;4981763;28;20068;-51
2021/10/14 05:51:37;;;;;;;1.67;0.70;;;19.30;55.70;;;;;;4986918;28;20057;-56
2021/10/14 05:54:03;;;;;;;1.70;0.75;;;19.30;55.90;;;;;;4979540;28;20032;-58
2021/10/14 05:56:29;;;;;;;1.75;0.90;;;19.40;56.00;;;;;;4985920;28;20042;-60
2021/10/14 05:58:55;;;;;;;3.30;1.38;;;19.40;56.10;;;;;;5001728;28;20108;-55
2021/10/14 06:01:21;;;;;;;1.52;0.80;;;19.40;56.00;;;;;;4999689;28;20041;-56
2021/10/14 06:03:47;;;;;;;1.35;0.70;;;19.40;56.00;;;;;;4982695;28;20042;-57
2021/10/14 06:06:13;;;;;;;1.45;0.70;;;19.40;56.00;;;;;;4988987;28;20398;-59
2021/10/14 06:08:38;;;;;;;1.40;0.70;;;19.30;55.90;;;;;;4975805;28;20559;-50
2021/10/14 06:11:04;;;;;;;1.25;0.70;;;19.30;55.90;;;;;;5003497;28;20060;-60
2021/10/14 06:13:30;;;;;;;1.23;0.70;;;19.30;55.90;;;;;;4988995;28;20117;-57
2021/10/14 06:15:56;;;;;;;1.67;0.70;;;19.30;55.90;;;;;;4992805;28;20128;-56
2021/10/14 06:18:21;;;;;;;2.58;0.90;;;19.30;55.90;;;;;;4989352;28;20720;-56
2021/10/14 06:20:47;;;;;;;2.50;0.80;;;19.30;55.90;;;;;;4998280;28;20405;-59
2021/10/14 06:23:13;;;;;;;1.65;0.80;;;19.30;56.00;;;;;;4996384;28;20035;-54
2021/10/14 06:25:39;;;;;;;2.80;0.80;;;19.30;55.90;;;;;;5007367;28;20581;-53
2021/10/14 06:28:05;;;;;;;1.98;1.00;;;19.30;56.40;;;;;;4993666;28;20121;-56
2021/10/14 06:30:32;;;;;;;2.22;0.90;;;19.30;56.00;;;;;;4991581;28;20386;-58
2021/10/14 06:32:58;;;;;;;3.28;0.80;;;19.30;56.00;;;;;;4988347;28;20352;-55
2021/10/14 06:35:24;;;;;;;1.42;0.80;;;19.30;55.90;;;;;;5001536;28;20026;-59
2021/10/14 06:37:50;;;;;;;1.60;0.82;;;19.30;55.90;;;;;;4998677;28;20429;-57
2021/10/14 06:40:16;;;;;;;2.60;0.80;;;19.30;55.90;;;;;;4986364;28;20105;-58
2021/10/14 06:42:42;;;;;;;1.40;0.77;;;19.20;55.80;;;;;;4986796;28;20035;-60
2021/10/14 06:45:08;;;;;;;2.17;0.90;;;19.30;55.90;;;;;;4986146;28;20030;-60
2021/10/14 06:47:35;;;;;;;2.42;0.82;;;19.30;55.80;;;;;;4993506;28;20023;-57
2021/10/14 06:50:01;;;;;;;2.17;0.80;;;19.30;55.80;;;;;;4993776;28;20030;-57
2021/10/14 06:52:26;;;;;;;1.52;0.80;;;19.20;55.70;;;;;;5001402;28;20045;-57
2021/10/14 06:54:52;;;;;;;1.52;0.82;;;19.30;55.80;;;;;;4995390;28;20030;-55
2021/10/14 06:57:18;;;;;;;1.70;0.93;;;19.20;55.70;;;;;;4980138;28;20050;-59
2021/10/14 06:59:43;;;;;;;1.65;0.98;;;19.30;55.70;;;;;;4988490;28;20086;-57
2021/10/14 07:02:09;;;;;;;1.70;0.90;;;19.30;55.70;;;;;;4994200;28;20038;-58
2021/10/14 07:04:35;;;;;;;2.50;0.80;;;19.20;55.60;;;;;;4992518;28;20062;-53
2021/10/14 07:07:00;;;;;;;2.08;0.80;;;19.20;55.60;;;;;;4988448;28;20077;-52
2021/10/14 07:09:26;;;;;;;1.38;0.70;;;19.20;55.60;;;;;;5004274;28;20092;-56
2021/10/14 07:11:54;;;;;;;1.33;0.80;;;19.20;55.60;;;;;;4997445;28;20038;-58
2021/10/14 07:14:20;;;;;;;2.05;0.80;;;19.20;55.60;;;;;;4987012;28;20482;-52
2021/10/14 07:16:46;;;;;;;2.58;1.25;;;19.20;55.70;;;;;;5000047;28;20096;-55
2021/10/14 07:19:11;;;;;;;1.02;0.60;;;19.20;55.70;;;;;;4998402;28;20628;-59
2021/10/14 07:21:37;;;;;;;1.15;0.60;;;19.20;55.70;;;;;;4995586;28;20097;-54
2021/10/14 07:24:03;;;;;;;0.90;0.70;;;19.20;55.80;;;;;;4990101;28;20043;-57
2021/10/14 07:26:28;;;;;;;1.73;0.88;;;19.20;55.80;;;;;;5000066;28;20390;-59
2021/10/14 07:28:54;;;;;;;2.10;0.77;;;19.20;55.80;;;;;;4995331;28;20608;-58
2021/10/14 07:31:20;;;;;;;1.88;0.70;;;19.20;55.80;;;;;;5000684;28;20041;-57
2021/10/14 07:33:45;;;;;;;2.13;0.80;;;19.20;55.80;;;;;;5002845;28;20022;-56
2021/10/14 07:36:11;;;;;;;1.73;0.93;;;19.20;55.80;;;;;;4990411;28;20034;-54
2021/10/14 07:38:36;;;;;;;1.67;0.90;;;19.20;55.80;;;;;;4992359;28;20120;-56
2021/10/14 07:41:02;;;;;;;1.95;0.90;;;19.20;55.80;;;;;;4991276;28;20050;-55
2021/10/14 07:43:28;;;;;;;2.47;0.90;;;19.20;55.80;;;;;;5006517;28;20378;-57
2021/10/14 07:45:54;;;;;;;2.40;0.75;;;19.20;55.80;;;;;;4999364;28;20057;-56
2021/10/14 07:48:20;;;;;;;1.92;0.77;;;19.20;55.80;;;;;;5007376;28;20535;-56
2021/10/14 07:50:46;;;;;;;1.30;0.80;;;19.20;55.80;;;;;;4988108;28;20038;-56
2021/10/14 07:53:17;;;;;;;1.30;0.80;;;19.20;56.30;;;;;;5007122;28;20457;-55
2021/10/14 07:55:43;;;;;;;1.58;0.80;;;19.20;55.80;;;;;;5002621;28;20100;-55
2021/10/14 07:58:10;;;;;;;1.15;0.80;;;19.20;55.80;;;;;;4988877;28;20629;-56
2021/10/14 08:00:39;;;;;;;1.35;0.80;;;19.20;55.80;;;;;;4998058;28;20113;-55
2021/10/14 08:03:05;;;;;;;1.38;0.70;;;19.20;55.70;;;;;;4980128;28;20034;-54
2021/10/14 08:05:31;;;;;;;3.60;0.90;;;19.20;55.80;;;;;;4997778;28;20076;-54
2021/10/14 08:07:58;;;;;;;1.90;0.90;;;19.20;55.80;;;;;;4987655;28;20035;-57
2021/10/14 08:10:23;;;;;;;1.10;0.80;;;19.20;55.80;;;;;;5000651;28;20044;-59
2021/10/14 08:12:49;;;;;;;2.22;0.98;;;19.10;55.70;;;;;;4996195;28;20038;-55
2021/10/14 08:15:15;;;;;;;1.50;0.82;;;19.20;55.80;;;;;;4991832;28;20471;-59
2021/10/14 08:17:40;;;;;;;1.25;0.80;;;19.20;55.80;;;;;;4985004;28;20391;-56
2021/10/14 08:20:08;;;;;;;1.20;0.73;;;19.20;55.70;;;;;;4991968;28;20045;-58
2021/10/14 08:22:36;;;;;;;1.30;0.80;;;19.20;55.70;;;;;;4982759;28;20018;-59
2021/10/14 08:25:14;;;;;;;2.25;1.30;;;19.20;55.70;;;;;;4991249;28;20026;-52
2021/10/14 08:27:41;;;;;;;1.38;0.75;;;19.10;55.70;;;;;;5004245;28;20045;-56
2021/10/14 08:30:08;;;;;;;2.20;0.88;;;19.10;55.70;;;;;;4981200;28;20101;-59
2021/10/14 08:32:34;;;;;;;1.48;0.90;;;19.10;55.70;;;;;;4995172;28;20041;-54
2021/10/14 08:35:00;;;;;;;2.47;0.90;;;19.10;55.70;;;;;;4998619;28;20497;-55
2021/10/14 08:37:26;;;;;;;1.38;0.90;;;19.10;55.70;;;;;;4986364;28;21788;-57
2021/10/14 08:39:53;;;;;;;2.40;0.95;;;19.10;55.70;;;;;;4988637;28;20100;-58
2021/10/14 08:42:20;;;;;;;1.80;0.98;;;19.10;55.70;;;;;;4990826;28;20109;-56
2021/10/14 08:44:47;;;;;;;1.70;1.10;;;19.10;55.70;;;;;;4996250;28;20048;-57
2021/10/14 08:47:16;;;;;;;2.03;1.00;;;19.10;55.70;;;;;;4993978;28;20084;-54
2021/10/14 08:49:47;;;;;;;1.85;1.00;;;19.10;55.60;;;;;;4977158;28;20034;-54
2021/10/14 08:52:15;;;;;;;1.98;0.90;;;19.10;55.60;;;;;;4991776;28;20474;-59
2021/10/14 08:54:41;;;;;;;1.75;0.90;;;19.10;55.60;;;;;;4980996;28;20026;-60
2021/10/14 08:57:07;;;;;;;1.67;1.00;;;19.10;56.10;;;;;;4997354;28;20034;-58
2021/10/14 08:59:34;;;;;;;1.77;0.93;;;19.10;55.60;;;;;;4990540;28;20032;-59
2021/10/14 09:02:09;;;;;;;1.98;1.00;;;19.10;55.60;;;;;;4983282;28;20074;-57
2021/10/14 09:04:50;;;;;;;1.88;1.00;;;19.20;55.60;;;;;;4989576;28;20039;-58
2021/10/14 09:07:18;;;;;;;2.17;1.00;;;19.10;55.60;;;;;;4984101;28;20475;-57
2021/10/14 09:09:45;;;;;;;2.40;1.10;;;19.10;55.60;;;;;;4998606;28;20041;-56
2021/10/14 09:12:12;;;;;;;1.88;1.00;;;19.10;55.50;;;;;;4994625;28;20058;-57
2021/10/14 09:14:57;;;;;;;2.00;1.00;;;19.10;55.50;;;;;;4995548;28;20025;-59
2021/10/14 09:17:43;;;;;;;1.63;1.02;;;19.10;55.60;;;;;;4992897;28;20060;-57
2021/10/14 09:20:20;;;;;;;2.58;1.02;;;19.10;55.60;;;;;;4998919;28;20074;-56
2021/10/14 09:22:58;;;;;;;3.15;1.20;;;19.10;55.60;;;;;;4991787;28;20045;-58
2021/10/14 09:25:32;;;;;;;1.65;1.00;;;19.10;55.60;;;;;;4996834;28;20030;-58
2021/10/14 09:28:13;;;;;;;2.05;1.15;;;19.10;55.60;;;;;;4994131;28;20483;-51
2021/10/14 09:30:46;;;;;;;1.90;1.20;;;19.10;55.60;;;;;;4998515;28;20115;-54
2021/10/14 09:33:38;;;;;;;1.67;1.00;;;19.10;55.70;;;;;;5000834;28;20034;-55
2021/10/14 09:36:25;;;;;;;1.60;1.00;;;19.10;55.70;;;;;;4989083;28;20030;-57
2021/10/14 09:38:52;;;;;;;1.75;1.10;;;19.10;55.70;;;;;;4976166;28;20043;-56
2021/10/14 09:41:21;;;;;;;1.98;1.10;;;19.10;55.70;;;;;;4991344;28;20099;-54
2021/10/14 09:43:50;;;;;;;2.28;1.30;;;19.10;55.70;;;;;;4999397;28;20046;-57
2021/10/14 09:46:38;;;;;;;1.58;1.08;;;19.10;55.60;;;;;;4981909;28;20117;-58
2021/10/14 09:49:30;;;;;;;1.63;1.17;;;19.10;55.70;;;;;;4982726;28;20054;-54
2021/10/14 09:52:00;;;;;;;2.47;1.08;;;19.10;55.70;;;;;;4984860;28;20785;-59
2021/10/14 09:54:26;;;;;;;2.53;1.25;;;19.10;55.70;;;;;;4990866;28;20030;-57
2021/10/14 09:56:52;;;;;;;3.05;1.17;;;19.10;55.70;;;;;;4991117;28;20595;-54
2021/10/14 09:59:18;;;;;;;2.10;1.20;;;19.10;55.70;;;;;;4995423;28;20092;-58
2021/10/14 10:01:43;;;;;;;1.67;1.13;;;19.10;55.60;;;;;;4999141;28;20054;-59
2021/10/14 10:04:09;;;;;;;1.65;1.13;;;19.10;55.60;;;;;;4996512;28;20057;-59
2021/10/14 10:06:37;;;;;;;2.40;1.20;;;19.10;55.60;;;;;;4986939;28;20128;-55
2021/10/14 10:09:08;;;;;;;3.00;1.40;;;19.10;55.60;;;;;;4979584;28;20362;-60
2021/10/14 10:11:39;;;;;;;2.20;1.10;;;19.10;55.60;;;;;;4991650;28;20033;-57
2021/10/14 10:14:06;;;;;;;1.30;0.98;;;19.10;55.60;;;;;;4992760;28;20080;-58
2021/10/14 10:16:32;;;;;;;2.20;1.20;;;19.10;55.50;;;;;;5001049;28;20805;-54
2021/10/14 10:18:59;;;;;;;2.28;1.20;;;19.10;55.50;;;;;;4986894;28;20026;-54
2021/10/14 10:21:31;;;;;;;2.38;1.13;;;19.20;55.60;;;;;;4984176;28;20659;-60
2021/10/14 10:24:04;;;;;;;2.63;1.25;;;19.20;55.50;;;;;;5003847;28;20029;-58
2021/10/14 10:26:32;;;;;;;1.90;1.10;;;19.20;55.40;;;;;;5007823;28;20509;-58
2021/10/14 10:28:59;;;;;;;2.30;1.10;;;19.20;55.40;;;;;;5001323;28;20072;-57
2021/10/14 10:31:45;;;;;;;1.58;1.08;;;19.20;55.40;;;;;;4987503;28;20290;-56
2021/10/14 10:37:20;;;;;;;1.83;1.10;;;19.20;55.40;;;;;;4982193;28;20048;-57
2021/10/14 10:39:50;;;;;;;1.52;1.00;;;19.20;55.30;;;;;;4988315;28;20030;-56
2021/10/14 10:42:29;;;;;;;2.00;1.20;;;19.20;55.30;;;;;;4998221;28;20733;-58
2021/10/14 10:45:05;;;;;;;1.80;1.10;;;19.20;55.20;;;;;;4997329;28;20034;-53
2021/10/14 10:47:48;;;;;;;2.22;1.20;;;19.20;55.20;;;;;;4987537;28;20189;-59
2021/10/14 10:50:34;;;;;;;1.80;1.10;;;19.20;55.20;;;;;;4989532;28;20137;-56
2021/10/14 10:53:03;;;;;;;2.42;1.15;;;19.20;55.30;;;;;;5003442;28;20132;-58
2021/10/14 10:55:28;;;;;;;2.13;1.10;;;19.20;55.30;;;;;;5001463;28;20200;-51
2021/10/14 10:57:55;;;;;;;1.60;1.00;;;19.20;55.30;;;;;;4998310;28;20041;-56
2021/10/14 11:00:22;;;;;;;1.63;0.95;;;19.20;55.30;;;;;;4990116;28;20648;-57
2021/10/14 11:03:23;;;;;;;1.98;1.10;;;19.20;55.30;;;;;;4980572;28;20514;-56
2021/10/14 11:05:54;;;;;;;2.55;1.30;;;19.20;55.30;;;;;;4989844;28;20030;-55
2021/10/14 11:08:22;;;;;;;2.75;1.23;;;19.20;55.20;;;;;;4982383;28;20018;-58
2021/10/14 11:10:56;;;;;;;2.03;1.08;;;19.20;55.20;;;;;;5005736;28;20115;-50
2021/10/14 11:13:23;;;;;;;1.95;1.10;;;19.20;55.20;;;;;;4991380;28;20029;-56
2021/10/14 11:15:56;;;;;;;1.67;1.05;;;19.20;55.30;;;;;;4995675;28;20022;-58
2021/10/14 11:18:24;;;;;;;2.28;1.30;;;19.20;55.30;;;;;;4984165;28;20050;-58
2021/10/14 11:20:54;;;;;;;3.15;1.15;;;19.20;55.30;;;;;;4989344;28;20616;-58
2021/10/14 11:23:21;;;;;;;1.80;1.00;;;19.20;55.30;;;;;;4998209;28;20026;-59
2021/10/14 11:26:10;;;;;;;1.85;0.90;;;19.20;55.30;;;;;;4999512;28;20034;-57
2021/10/14 11:29:00;;;;;;;2.00;1.10;;;19.20;55.30;;;;;;4992059;28;20022;-59
2021/10/14 11:31:30;;;;;;;1.73;1.10;;;19.20;55.30;;;;;;4986639;28;20049;-59
2021/10/14 11:34:10;;;;;;;2.10;1.20;;;19.20;55.40;;;;;;5010341;28;20442;-61
2021/10/14 11:36:38;;;;;;;3.55;1.20;;;19.20;55.40;;;;;;5003466;28;20057;-58
2021/10/14 11:39:11;;;;;;;1.85;1.20;;;19.20;55.30;;;;;;5002278;28;20359;-60
2021/10/14 11:41:38;;;;;;;2.47;1.38;;;19.20;55.40;;;;;;4983710;28;20490;-56
2021/10/14 11:44:09;;;;;;;2.25;1.17;;;19.20;55.30;;;;;;4979340;28;20049;-58
2021/10/14 11:46:37;;;;;;;1.98;1.10;;;19.20;55.40;;;;;;4983865;28;20034;-58
2021/10/14 11:49:13;;;;;;;2.53;1.35;;;19.20;55.50;;;;;;4997571;28;20473;-60
2021/10/14 11:51:40;;;;;;;2.75;1.20;;;19.30;55.50;;;;;;4993490;28;20363;-59
2021/10/14 11:54:11;;;;;;;2.53;1.33;;;19.20;55.40;;;;;;5002294;28;20041;-60
2021/10/14 11:56:43;;;;;;;2.20;1.13;;;19.30;55.60;;;;;;4993843;28;20466;-59
2021/10/14 11:59:09;;;;;;;2.20;1.10;;;19.30;55.60;;;;;;4997162;28;20068;-58
2021/10/14 12:01:46;;;;;;;2.28;1.13;;;19.20;55.60;;;;;;4999391;28;20089;-57
2021/10/14 12:04:16;;;;;;;2.25;1.38;;;19.30;55.70;;;;;;5002093;28;20069;-59
2021/10/14 12:06:44;;;;;;;2.40;1.05;;;19.30;55.80;;;;;;4983824;28;20046;-58
2021/10/14 12:09:12;;;;;;;2.42;1.10;;;19.30;55.70;;;;;;4998904;28;20041;-60
2021/10/14 12:11:38;;;;;;;3.10;1.20;;;19.30;55.80;;;;;;4999994;28;20113;-60
2021/10/14 12:14:04;;;;;;;2.67;1.33;;;19.30;55.80;;;;;;4995782;28;20101;-56
2021/10/14 12:16:31;;;;;;;2.22;1.20;;;19.30;55.80;;;;;;4973611;28;20618;-57
2021/10/14 12:19:17;;;;;;;1.90;1.20;;;19.30;55.90;;;;;;4987434;28;20454;-59
2021/10/14 12:21:45;;;;;;;2.13;1.08;;;19.30;55.80;;;;;;4978066;28;20129;-59
2021/10/14 12:24:15;;;;;;;2.65;1.17;;;19.30;55.80;;;;;;4996209;28;21650;-56
2021/10/14 12:26:42;;;;;;;1.90;1.10;;;19.30;55.80;;;;;;4988842;28;20048;-59
2021/10/14 12:29:30;;;;;;;2.03;1.10;;;19.30;55.80;;;;;;4987740;28;20027;-57
2021/10/14 12:32:08;;;;;;;2.00;1.15;;;19.30;55.80;;;;;;4979617;28;20053;-61
2021/10/14 12:34:52;;;;;;;2.17;1.10;;;19.30;55.70;;;;;;4992918;28;20097;-60
2021/10/14 12:37:31;;;;;;;2.65;1.10;;;19.30;55.70;;;;;;4978794;28;20354;-60
2021/10/14 12:40:20;;;;;;;3.35;1.35;;;19.30;55.70;;;;;;4984795;28;20026;-59
2021/10/14 12:45:42;;;;;;;3.35;1.00;;;19.30;55.60;;;;;;4983820;28;20114;-57
2021/10/14 12:51:33;;;;;;;1.73;1.10;;;19.30;55.60;;;;;;4990001;28;20030;-58
2021/10/14 12:54:04;;;;;;;1.83;1.23;;;19.30;55.50;;;;;;4983397;28;20478;-60
2021/10/14 12:56:38;;;;;;;3.22;1.08;;;19.30;55.50;;;;;;4988398;28;20041;-57
2021/10/14 12:59:06;;;;;;;2.53;1.30;;;19.30;55.40;;;;;;4994432;28;20614;-57
2021/10/14 13:01:32;;;;;;;2.25;1.02;;;19.30;55.40;;;;;;4989692;28;20087;-55